Time;durP1;ratioP1;P1;durP2;ratioP2;P2;SDS_P1;SDS_P2;PMS_P1;PMS_P2;Temp;Humidity;BMP_temperature;BMP_pressure;BME280_temperature;BME280_humidity;BME280_pressure;Samples;Min_cycle;Max_cycle;Signal;HPM_P1;HPM_P2
2022/08/13 00:01:46;;;;;;;5.55;3.40;;;;;;;20.65;46.30;101488.28;5007856;28;20048;-82
2022/08/13 00:04:14;;;;;;;4.72;3.75;;;;;;;20.59;46.04;101484.69;5008135;28;20480;-83
2022/08/13 00:09:09;;;;;;;5.05;3.28;;;;;;;20.52;46.76;101490.41;4989644;28;20053;-84
2022/08/13 00:14:23;;;;;;;4.07;3.70;;;;;;;20.48;47.16;101489.28;4991383;28;20606;-82
2022/08/13 00:16:54;;;;;;;5.70;3.80;;;;;;;20.38;47.44;101491.94;4989042;28;20041;-84
2022/08/13 00:19:20;;;;;;;7.70;3.85;;;;;;;20.39;46.76;101497.16;5007106;28;20040;-84
2022/08/13 00:21:47;;;;;;;8.43;3.85;;;;;;;20.35;47.00;101490.53;5008107;28;20135;-83
2022/08/13 00:24:14;;;;;;;8.60;3.97;;;;;;;20.22;47.56;101488.19;5007874;28;20131;-85
2022/08/13 00:26:39;;;;;;;8.90;3.92;;;;;;;20.32;47.25;101485.56;4991211;28;20477;-84
2022/08/13 00:29:06;;;;;;;6.78;3.70;;;;;;;20.17;48.95;101493.69;5008049;28;20328;-83
2022/08/13 00:31:32;;;;;;;7.00;3.75;;;;;;;20.16;48.49;101486.50;5007879;28;20092;-84
2022/08/13 00:33:59;;;;;;;5.95;3.95;;;;;;;20.19;48.34;101489.53;4988540;28;20037;-83
2022/08/13 00:36:26;;;;;;;4.50;3.78;;;;;;;20.12;49.05;101490.88;4991085;28;20493;-83
2022/08/13 00:38:53;;;;;;;5.65;3.75;;;;;;;19.98;48.82;101491.28;5008024;28;20543;-84
2022/08/13 00:41:37;;;;;;;8.43;4.07;;;;;;;20.06;48.67;101487.25;5006856;28;20029;-82
2022/08/13 00:44:04;;;;;;;6.40;4.05;;;;;;;20.10;47.65;101493.88;5007146;28;20122;-82
2022/08/13 00:46:31;;;;;;;5.78;3.85;;;;;;;20.01;48.59;101490.75;5007268;28;20119;-85
2022/08/13 00:48:56;;;;;;;6.70;3.87;;;;;;;19.98;48.23;101491.28;5007276;28;20436;-82
2022/08/13 00:51:24;;;;;;;5.63;4.17;;;;;;;19.88;48.77;101496.66;4988213;28;20059;-83
2022/08/13 00:53:50;;;;;;;7.63;3.80;;;;;;;19.89;48.58;101493.66;5007117;28;20678;-83
2022/08/13 00:56:17;;;;;;;6.33;3.93;;;;;;;19.93;47.59;101496.72;4988316;28;20068;-83
2022/08/13 00:58:43;;;;;;;8.63;4.27;;;;;;;19.88;48.08;101489.28;4987968;28;20030;-85
2022/08/13 01:01:11;;;;;;;7.40;4.27;;;;;;;19.80;49.32;101495.22;5005606;28;20085;-82
2022/08/13 01:03:37;;;;;;;6.63;3.97;;;;;;;19.81;49.16;101498.81;5007924;28;20057;-83
2022/08/13 01:06:04;;;;;;;6.03;4.00;;;;;;;19.51;52.00;101486.34;4990308;28;20148;-86
2022/08/13 01:08:31;;;;;;;5.83;4.43;;;;;;;19.55;51.26;101496.53;5007616;28;20041;-85
2022/08/13 01:11:11;;;;;;;7.23;4.20;;;;;;;19.59;51.19;101494.13;5007307;28;20674;-83
2022/08/13 01:13:39;;;;;;;6.77;4.17;;;;;;;19.41;52.55;101489.78;5007402;28;20045;-83
2022/08/13 01:16:07;;;;;;;5.43;4.43;;;;;;;19.46;51.70;101495.34;5006331;28;20042;-82
2022/08/13 01:18:36;;;;;;;8.13;4.63;;;;;;;19.37;53.27;101496.88;5007050;28;20033;-83
2022/08/13 01:21:14;;;;;;;9.03;4.80;;;;;;;19.35;52.50;101493.53;5006853;28;20184;-83
2022/08/13 01:23:46;;;;;;;8.73;4.60;;;;;;;19.18;53.92;101488.94;5007144;28;20458;-83
2022/08/13 01:26:15;;;;;;;8.03;4.87;;;;;;;19.15;54.05;101491.38;4986881;28;20314;-84
2022/08/13 01:28:43;;;;;;;7.50;4.80;;;;;;;19.11;52.81;101492.94;5006976;28;20541;-83
2022/08/13 01:31:10;;;;;;;8.33;5.20;;;;;;;19.08;54.51;101488.81;5006182;28;20061;-83
2022/08/13 01:33:36;;;;;;;9.67;4.97;;;;;;;19.01;52.18;101499.13;5006712;28;21517;-83
2022/08/13 01:36:04;;;;;;;7.10;4.40;;;;;;;18.89;53.81;101502.81;5007244;28;20041;-85
2022/08/13 01:38:48;;;;;;;9.20;5.20;;;;;;;18.85;53.45;101498.06;5006256;28;20581;-86
2022/08/13 01:41:13;;;;;;;6.68;4.82;;;;;;;18.71;55.44;101498.41;5006263;28;20065;-84
2022/08/13 01:43:40;;;;;;;8.87;4.93;;;;;;;18.63;54.81;101497.97;4987105;28;20120;-85
2022/08/13 01:46:08;;;;;;;8.87;4.57;;;;;;;18.73;54.94;101498.16;4996107;28;20034;-85
2022/08/13 01:51:24;;;;;;;6.70;4.90;;;;;;;18.65;55.41;101501.31;5005483;28;20045;-83
2022/08/13 01:53:58;;;;;;;7.27;4.80;;;;;;;18.55;56.04;101494.56;5005991;28;20476;-83
2022/08/13 01:56:24;;;;;;;6.82;4.95;;;;;;;18.45;56.40;101491.66;5006883;28;20030;-84
2022/08/13 01:58:51;;;;;;;7.20;4.80;;;;;;;18.51;55.54;101495.34;5005979;28;20114;-85
2022/08/13 02:01:17;;;;;;;7.20;4.73;;;;;;;18.36;57.40;101487.69;5006610;28;20099;-84
2022/08/13 02:03:48;;;;;;;7.17;4.57;;;;;;;18.47;54.92;101488.69;4987948;28;20029;-84
2022/08/13 02:06:13;;;;;;;7.67;4.73;;;;;;;18.53;54.84;101484.94;5005323;28;20651;-84
2022/08/13 02:08:40;;;;;;;9.53;5.10;;;;;;;18.30;56.64;101491.41;4986584;28;20124;-84
2022/08/13 02:11:07;;;;;;;9.47;5.10;;;;;;;18.35;55.63;101488.75;4985608;28;20042;-83
2022/08/13 02:13:32;;;;;;;7.13;5.40;;;;;;;18.16;58.72;101494.47;5005121;28;20072;-84
2022/08/13 02:15:58;;;;;;;6.03;4.97;;;;;;;18.05;59.62;101487.97;5005596;28;20460;-83
2022/08/13 02:18:26;;;;;;;6.70;5.10;;;;;;;18.00;59.03;101489.78;4985861;28;20038;-83
2022/08/13 02:20:57;;;;;;;10.13;5.30;;;;;;;17.98;57.95;101486.47;5005105;28;20034;-84
2022/08/13 02:23:33;;;;;;;7.27;5.17;;;;;;;17.95;58.93;101485.06;5005700;28;20068;-82
2022/08/13 02:26:00;;;;;;;5.83;5.03;;;;;;;17.97;59.89;101490.28;5005864;28;20057;-83
2022/08/13 02:28:28;;;;;;;5.53;4.87;;;;;;;17.85;60.77;101488.38;5005227;28;20469;-85
2022/08/13 02:30:55;;;;;;;6.53;5.27;;;;;;;17.78;60.01;101486.88;4985401;28;20622;-83
2022/08/13 02:33:20;;;;;;;10.40;5.10;;;;;;;17.77;60.30;101485.22;5005606;28;20035;-83
2022/08/13 02:35:46;;;;;;;7.73;5.23;;;;;;;17.79;60.39;101496.75;5005340;28;20397;-83
2022/08/13 02:38:13;;;;;;;9.63;5.40;;;;;;;17.74;58.73;101488.44;4990002;28;20176;-85
2022/08/13 02:43:25;;;;;;;8.07;4.87;;;;;;;17.79;58.20;101488.50;4989253;28;20511;-83
2022/08/13 02:45:54;;;;;;;14.13;5.70;;;;;;;17.61;59.35;101495.88;5005054;28;20029;-83
2022/08/13 02:48:22;;;;;;;7.87;5.20;;;;;;;17.70;58.42;101483.44;5005552;28;21384;-83
2022/08/13 02:50:49;;;;;;;7.80;5.20;;;;;;;17.66;60.16;101485.00;5005232;28;20099;-83
2022/08/13 02:53:15;;;;;;;9.97;5.50;;;;;;;17.71;58.58;101487.84;5005515;28;20030;-84
2022/08/13 02:55:44;;;;;;;6.43;4.90;;;;;;;17.71;57.04;101487.03;4993659;28;20053;-84
2022/08/13 02:58:09;;;;;;;9.00;5.47;;;;;;;17.72;57.99;101488.69;5005180;28;20049;-84
2022/08/13 03:00:35;;;;;;;7.77;5.10;;;;;;;17.72;58.12;101486.78;5006420;28;20066;-84
2022/08/13 03:03:04;;;;;;;9.50;5.30;;;;;;;17.45;60.81;101478.28;5004848;28;20116;-83
2022/08/13 03:05:30;;;;;;;10.37;5.47;;;;;;;17.54;58.58;101487.78;4984975;28;20148;-83
2022/08/13 03:07:57;;;;;;;6.50;5.20;;;;;;;17.56;60.21;101484.81;5005021;28;20037;-82
2022/08/13 03:10:25;;;;;;;8.03;5.40;;;;;;;17.31;62.07;101477.72;5004039;28;20037;-83
2022/08/13 03:13:18;;;;;;;6.40;4.70;;;;;;;17.34;60.91;101484.63;5005203;28;20235;-83
2022/08/13 03:15:45;;;;;;;10.70;5.30;;;;;;;17.37;61.47;101495.09;4978656;28;20073;-84
2022/08/13 03:18:11;;;;;;;6.30;5.40;;;;;;;17.37;60.91;101484.97;5004931;28;20037;-83
2022/08/13 03:20:37;;;;;;;7.13;5.37;;;;;;;17.43;60.57;101490.56;5004746;28;20437;-83
2022/08/13 03:23:03;;;;;;;6.57;5.40;;;;;;;17.16;63.19;101480.13;5004012;28;20041;-84
2022/08/13 03:25:29;;;;;;;9.37;5.47;;;;;;;17.29;61.40;101485.34;4985488;28;20132;-83
2022/08/13 03:27:57;;;;;;;8.87;5.10;;;;;;;17.28;60.46;101489.16;5004330;28;20385;-83
2022/08/13 03:30:26;;;;;;;6.93;5.27;;;;;;;17.15;63.40;101494.91;4985043;28;20049;-83
2022/08/13 03:32:52;;;;;;;7.60;5.30;;;;;;;17.04;64.70;101482.91;5004001;28;20034;-83
2022/08/13 03:35:22;;;;;;;9.37;5.27;;;;;;;16.97;64.34;101493.97;5004736;28;20076;-83
2022/08/13 03:37:53;;;;;;;7.80;5.20;;;;;;;16.85;64.84;101499.41;4985175;28;20121;-83
2022/08/13 03:40:24;;;;;;;8.07;5.70;;;;;;;16.83;65.56;101495.25;5004275;28;20129;-83
2022/08/13 03:42:50;;;;;;;7.57;5.77;;;;;;;16.78;65.72;101492.38;5004612;28;20144;-82
2022/08/13 03:45:18;;;;;;;8.83;5.60;;;;;;;16.58;66.52;101495.44;4985999;28;20052;-83
2022/08/13 03:47:44;;;;;;;8.50;5.47;;;;;;;16.57;66.41;101491.88;5004174;28;20102;-83
2022/08/13 03:50:12;;;;;;;7.93;5.97;;;;;;;16.47;67.87;101494.38;5003403;28;20053;-83
2022/08/13 03:52:39;;;;;;;7.90;6.10;;;;;;;16.45;67.44;101496.50;5004115;28;20033;-82
2022/08/13 03:55:12;;;;;;;10.13;5.97;;;;;;;16.36;68.27;101493.31;5004748;28;20037;-83
2022/08/13 03:57:44;;;;;;;6.78;6.00;;;;;;;16.29;67.51;101495.28;4984542;28;20042;-84
2022/08/13 04:00:12;;;;;;;9.13;6.13;;;;;;;16.37;67.03;101494.94;5004378;28;20038;-83
2022/08/13 04:02:41;;;;;;;9.70;6.30;;;;;;;16.18;66.14;101488.72;5003995;28;20044;-84
2022/08/13 04:05:17;;;;;;;9.60;6.00;;;;;;;16.28;67.13;101488.13;4989147;28;20061;-83
2022/08/13 04:07:46;;;;;;;8.17;6.27;;;;;;;16.32;65.49;101487.47;5004406;28;20030;-83
2022/08/13 04:10:12;;;;;;;8.53;5.73;;;;;;;16.29;66.62;101487.94;4984939;28;20102;-82
2022/08/13 04:12:38;;;;;;;9.57;6.43;;;;;;;16.26;65.46;101487.56;5004887;28;20092;-84
2022/08/13 04:15:06;;;;;;;10.23;6.00;;;;;;;16.10;67.51;101484.44;5003829;28;20039;-83
2022/08/13 04:17:33;;;;;;;8.17;6.10;;;;;;;16.20;66.14;101476.50;5004504;28;20388;-85
2022/08/13 04:19:58;;;;;;;8.37;6.40;;;;;;;16.16;67.98;101483.50;5004786;28;20042;-83
2022/08/13 04:22:27;;;;;;;9.10;5.97;;;;;;;16.11;68.03;101485.25;5003869;28;20048;-83
2022/08/13 04:24:52;;;;;;;11.00;6.60;;;;;;;16.01;68.88;101488.56;5004591;28;20385;-84
2022/08/13 04:27:17;;;;;;;11.40;6.40;;;;;;;15.94;70.25;101487.81;5004310;28;20045;-82
2022/08/13 04:29:43;;;;;;;9.00;6.40;;;;;;;16.02;68.94;101493.78;5003639;28;20037;-83
2022/08/13 04:32:08;;;;;;;8.37;6.10;;;;;;;15.92;69.80;101493.50;4983982;28;20041;-83
2022/08/13 04:34:33;;;;;;;9.03;6.30;;;;;;;15.97;69.05;101496.38;5005957;28;20111;-85
2022/08/13 04:37:01;;;;;;;9.23;6.50;;;;;;;15.94;69.66;101496.84;4987181;28;20048;-86
2022/08/13 04:39:50;;;;;;;8.43;6.00;;;;;;;16.06;68.47;101507.84;5007963;28;20060;-82
2022/08/13 04:42:15;;;;;;;8.67;6.40;;;;;;;16.08;69.17;101497.50;4984464;28;20033;-82
2022/08/13 04:44:41;;;;;;;9.27;6.23;;;;;;;15.97;69.38;101501.03;5007719;28;20076;-84
2022/08/13 04:47:07;;;;;;;9.87;6.57;;;;;;;15.97;69.98;101496.38;5007215;28;20068;-82
2022/08/13 04:49:59;;;;;;;8.47;6.43;;;;;;;15.94;70.20;101498.75;5007298;28;20397;-83
2022/08/13 04:52:25;;;;;;;9.80;6.20;;;;;;;16.00;69.68;101506.84;5007054;28;20037;-84
2022/08/13 04:54:50;;;;;;;8.57;6.60;;;;;;;15.93;70.65;101506.13;5006849;28;20045;-84
2022/08/13 04:57:15;;;;;;;9.60;6.70;;;;;;;15.74;71.71;101497.09;5007332;28;20076;-84
2022/08/13 04:59:42;;;;;;;9.83;6.77;;;;;;;15.80;71.70;101504.41;5007362;28;20037;-84
2022/08/13 05:02:08;;;;;;;9.07;6.03;;;;;;;15.93;70.38;101508.03;5007369;28;20100;-85
2022/08/13 05:04:33;;;;;;;10.13;6.73;;;;;;;15.93;71.37;101508.84;5007231;28;20695;-83
2022/08/13 05:06:58;;;;;;;8.90;6.20;;;;;;;15.99;69.71;101507.94;5006929;28;20030;-83
2022/08/13 05:09:24;;;;;;;8.27;6.43;;;;;;;15.91;70.48;101502.78;5007765;28;20030;-83
2022/08/13 05:11:49;;;;;;;9.83;6.47;;;;;;;16.02;68.87;101507.47;4986569;28;20495;-83
2022/08/13 05:14:15;;;;;;;8.60;6.43;;;;;;;16.09;69.31;101507.38;5007908;28;20057;-83
2022/08/13 05:16:40;;;;;;;7.17;6.27;;;;;;;16.11;70.05;101512.59;5007336;28;20038;-84
2022/08/13 05:19:05;;;;;;;9.83;6.70;;;;;;;16.23;68.92;101521.66;5007215;28;20608;-84
2022/08/13 05:21:33;;;;;;;8.53;6.50;;;;;;;16.29;67.78;101512.53;5006963;28;20150;-84
2022/08/13 05:23:58;;;;;;;29.30;7.60;;;;;;;16.35;67.53;101517.06;5006578;28;20045;-84
2022/08/13 05:26:25;;;;;;;10.13;6.60;;;;;;;16.50;68.63;101513.88;5006587;28;20037;-83
2022/08/13 05:28:51;;;;;;;10.70;6.57;;;;;;;16.50;68.81;101515.78;5006456;28;20038;-83
2022/08/13 05:31:17;;;;;;;11.90;6.80;;;;;;;16.63;68.54;101521.06;5006754;28;20053;-83
2022/08/13 05:33:44;;;;;;;10.90;6.50;;;;;;;16.68;69.12;101512.94;4988143;28;20068;-83
2022/08/13 05:36:09;;;;;;;9.17;6.73;;;;;;;16.73;69.21;101514.13;5007270;28;20034;-82
2022/08/13 05:38:36;;;;;;;7.93;6.23;;;;;;;16.92;67.44;101520.38;5006394;28;20422;-83
2022/08/13 05:41:04;;;;;;;9.87;5.80;;;;;;;16.98;66.77;101505.75;5005846;28;20060;-83
2022/08/13 05:43:36;;;;;;;10.10;6.07;;;;;;;17.10;66.17;101519.44;4987575;28;20429;-84
2022/08/13 05:46:05;;;;;;;10.63;7.17;;;;;;;17.14;69.13;101515.13;5006049;28;20504;-82
2022/08/13 05:48:32;;;;;;;11.83;6.80;;;;;;;17.26;68.08;101513.22;4990009;28;20238;-82
2022/08/13 05:51:01;;;;;;;9.27;6.60;;;;;;;17.37;68.47;101512.34;5006654;28;20563;-82
2022/08/13 05:53:28;;;;;;;10.60;6.00;;;;;;;17.53;65.84;101509.97;5006276;28;20033;-83
2022/08/13 05:55:53;;;;;;;10.93;6.17;;;;;;;17.66;64.65;101523.34;5006320;28;20048;-83
2022/08/13 05:58:20;;;;;;;10.93;6.30;;;;;;;17.75;63.00;101509.28;5005953;28;20038;-82
2022/08/13 06:03:29;;;;;;;11.90;5.93;;;;;;;18.04;63.00;101518.38;5006027;28;20084;-84
2022/08/13 06:05:57;;;;;;;10.93;5.30;;;;;;;18.21;60.02;101518.41;5005519;28;20034;-85
2022/08/13 06:08:30;;;;;;;10.87;5.70;;;;;;;18.34;59.66;101512.59;5006476;28;20042;-83
2022/08/13 06:10:58;;;;;;;9.15;4.93;;;;;;;18.46;59.13;101517.19;5006129;28;20034;-82
2022/08/13 06:13:24;;;;;;;6.83;5.07;;;;;;;18.60;58.32;101509.47;5006358;28;20026;-85
2022/08/13 06:15:58;;;;;;;10.50;5.03;;;;;;;18.74;58.17;101510.81;5005593;28;20041;-81
2022/08/13 06:18:32;;;;;;;8.48;5.43;;;;;;;18.89;58.01;101508.31;5006480;28;20079;-82
2022/08/13 06:21:01;;;;;;;10.05;4.82;;;;;;;19.00;57.35;101503.81;5006623;28;20033;-84
2022/08/13 06:23:28;;;;;;;10.33;5.40;;;;;;;19.17;55.80;101505.69;5006045;28;20040;-85
2022/08/13 06:25:55;;;;;;;7.80;4.93;;;;;;;19.30;55.49;101512.72;5006436;28;20044;-84
2022/08/13 06:28:25;;;;;;;8.50;4.80;;;;;;;19.36;55.33;101501.53;5006198;28;20127;-84
2022/08/13 06:30:53;;;;;;;8.40;4.73;;;;;;;19.56;54.08;101513.88;5004918;28;20148;-84
2022/08/13 06:33:23;;;;;;;10.90;5.40;;;;;;;19.66;53.77;101513.16;5005219;28;20042;-84
2022/08/13 06:35:54;;;;;;;7.03;4.80;;;;;;;19.78;54.22;101513.84;5005597;28;20224;-84
2022/08/13 06:38:22;;;;;;;7.50;5.20;;;;;;;19.94;53.86;101522.31;4967098;28;20071;-82
2022/08/13 06:40:48;;;;;;;9.13;4.97;;;;;;;20.03;53.55;101518.84;5005184;28;20029;-82
2022/08/13 06:43:18;;;;;;;8.75;5.38;;;;;;;20.17;53.00;101516.50;5005403;28;20125;-85
2022/08/13 06:45:45;;;;;;;7.57;5.30;;;;;;;20.28;52.66;101517.44;5005867;28;20495;-83
2022/08/13 06:48:11;;;;;;;8.13;5.30;;;;;;;20.44;54.02;101521.16;5006265;28;20452;-83
2022/08/13 06:50:37;;;;;;;8.02;5.05;;;;;;;20.52;53.11;101517.06;5005330;28;20096;-83
2022/08/13 06:53:07;;;;;;;6.97;5.10;;;;;;;20.68;52.99;101532.66;5005330;28;20577;-84
2022/08/13 06:55:36;;;;;;;6.90;5.38;;;;;;;20.78;52.08;101529.19;5004723;28;20042;-85
2022/08/13 06:58:04;;;;;;;10.05;5.22;;;;;;;20.95;52.34;101523.50;4987464;28;20044;-84
2022/08/13 07:00:30;;;;;;;9.18;5.00;;;;;;;21.05;51.46;101517.22;5005139;28;20445;-85
2022/08/13 07:02:58;;;;;;;10.75;5.40;;;;;;;21.14;50.73;101518.38;5004606;28;20033;-82
2022/08/13 07:05:38;;;;;;;11.38;5.30;;;;;;;21.29;51.30;101527.84;5005371;28;20045;-86
2022/08/13 07:08:06;;;;;;;8.82;5.45;;;;;;;21.35;49.52;101527.59;5004651;28;20037;-83
2022/08/13 07:10:33;;;;;;;9.98;5.30;;;;;;;21.53;50.38;101533.78;5005203;28;20138;-83
2022/08/13 07:13:00;;;;;;;8.30;5.18;;;;;;;21.66;50.75;101540.72;5004094;28;20079;-83
2022/08/13 07:15:26;;;;;;;7.45;4.47;;;;;;;21.81;51.11;101534.41;4986061;28;20060;-82
2022/08/13 07:17:53;;;;;;;11.60;5.10;;;;;;;21.92;49.33;101533.34;5005264;28;20434;-82
2022/08/13 07:20:20;;;;;;;8.02;5.10;;;;;;;22.04;48.54;101536.69;5004461;28;20162;-83
2022/08/13 07:22:45;;;;;;;7.75;5.22;;;;;;;22.21;49.50;101530.94;5005029;28;20128;-85
2022/08/13 07:25:11;;;;;;;8.05;4.78;;;;;;;22.26;48.19;101530.94;5004823;28;20084;-82
2022/08/13 07:27:39;;;;;;;7.70;4.85;;;;;;;22.47;47.91;101532.94;5004083;28;20033;-86
2022/08/13 07:30:06;;;;;;;9.38;4.50;;;;;;;22.55;47.37;101530.44;5004270;28;20211;-84
2022/08/13 07:32:36;;;;;;;6.80;4.15;;;;;;;22.65;46.77;101529.59;5004786;28;20505;-84
2022/08/13 07:35:02;;;;;;;8.80;4.35;;;;;;;22.85;46.41;101534.28;4983593;28;20401;-84
2022/08/13 07:37:28;;;;;;;10.00;4.38;;;;;;;22.96;46.11;101535.09;4994307;28;20037;-84
2022/08/13 07:39:53;;;;;;;7.28;4.15;;;;;;;23.05;46.86;101540.88;5004201;28;20042;-84
2022/08/13 07:42:23;;;;;;;7.50;4.25;;;;;;;23.21;46.47;101536.16;4989474;28;20034;-83
2022/08/13 07:44:52;;;;;;;6.63;4.10;;;;;;;23.37;46.46;101535.00;5004506;28;20072;-84
2022/08/13 07:47:19;;;;;;;4.82;4.03;;;;;;;23.46;45.99;101534.44;5005136;28;20045;-83
2022/08/13 07:49:45;;;;;;;5.82;4.00;;;;;;;23.62;45.96;101536.03;5004483;28;20065;-84
2022/08/13 07:52:13;;;;;;;8.60;3.60;;;;;;;23.70;46.40;101538.19;5004554;28;20487;-84
2022/08/13 07:54:40;;;;;;;8.50;3.72;;;;;;;23.93;46.16;101535.91;5003967;28;20124;-82
2022/08/13 07:57:05;;;;;;;7.95;4.20;;;;;;;23.98;44.81;101537.84;5003850;28;20036;-83
2022/08/13 07:59:31;;;;;;;5.18;3.47;;;;;;;24.10;43.72;101538.31;5003739;28;20045;-85
2022/08/13 08:01:57;;;;;;;7.15;4.05;;;;;;;24.21;44.29;101536.28;5005235;28;20124;-82
2022/08/13 08:04:24;;;;;;;9.50;3.63;;;;;;;24.45;44.66;101539.13;5004349;28;20037;-84
2022/08/13 08:06:50;;;;;;;5.50;3.50;;;;;;;24.60;43.08;101538.19;5004532;28;20037;-84
2022/08/13 08:09:17;;;;;;;7.10;3.40;;;;;;;24.73;42.74;101536.75;5005928;28;20417;-82
2022/08/13 08:14:28;;;;;;;5.18;3.35;;;;;;;25.05;42.76;101540.84;5007914;28;20055;-83
2022/08/13 08:16:54;;;;;;;4.13;3.30;;;;;;;25.28;42.87;101539.22;5007231;28;20045;-83
2022/08/13 08:19:20;;;;;;;6.93;3.35;;;;;;;25.34;41.24;101545.56;5007645;28;20045;-84
2022/08/13 08:21:47;;;;;;;4.28;3.15;;;;;;;25.56;41.72;101554.16;5008438;28;20457;-82
2022/08/13 08:24:14;;;;;;;6.28;3.10;;;;;;;25.67;40.79;101543.75;5007916;28;20029;-82
2022/08/13 08:26:40;;;;;;;6.47;3.55;;;;;;;25.76;40.70;101547.53;5008163;28;20030;-83
2022/08/13 08:29:10;;;;;;;6.45;3.20;;;;;;;25.89;39.50;101550.69;5007527;28;20033;-82
2022/08/13 08:31:40;;;;;;;7.47;3.15;;;;;;;26.08;39.79;101543.25;5007334;28;20072;-84
2022/08/13 08:34:07;;;;;;;6.28;3.28;;;;;;;26.23;38.80;101550.53;5008019;28;20034;-83
2022/08/13 08:36:37;;;;;;;8.43;3.30;;;;;;;26.40;38.28;101549.16;4989891;28;20489;-82
2022/08/13 08:44:38;;;;;;;6.45;3.10;;;;;;;27.41;38.25;101544.84;4991757;28;20810;-83
2022/08/13 08:47:05;;;;;;;4.75;2.85;;;;;;;27.70;36.65;101540.09;5007506;28;20026;-83
2022/08/13 08:49:30;;;;;;;5.30;2.80;;;;;;;28.03;35.53;101548.28;5007471;28;20040;-84
2022/08/13 08:51:57;;;;;;;7.63;3.15;;;;;;;28.25;35.05;101551.13;4988700;28;20513;-84
2022/08/13 08:54:24;;;;;;;4.65;2.60;;;;;;;28.40;34.28;101547.13;4988654;28;20036;-83
2022/08/13 08:56:54;;;;;;;3.92;2.80;;;;;;;28.86;33.88;101542.38;5007580;28;20044;-83
2022/08/13 08:59:23;;;;;;;5.25;2.80;;;;;;;28.99;34.09;101540.63;5008224;28;20034;-83
2022/08/13 09:01:51;;;;;;;5.00;2.63;;;;;;;29.55;33.98;101541.03;5006619;28;20081;-85
2022/08/13 09:04:18;;;;;;;5.85;2.50;;;;;;;29.70;33.31;101545.34;5006815;28;20089;-84
2022/08/13 09:06:47;;;;;;;4.40;2.70;;;;;;;30.22;32.69;101538.16;5006987;28;20041;-84
2022/08/13 09:09:13;;;;;;;5.65;2.20;;;;;;;30.35;29.25;101544.75;5006583;28;20034;-82
2022/08/13 09:11:39;;;;;;;2.30;2.10;;;;;;;30.73;28.61;101544.84;5007143;28;20092;-88
2022/08/13 09:14:08;;;;;;;6.78;2.00;;;;;;;30.93;27.88;101540.53;5006698;28;20055;-85
2022/08/13 09:16:39;;;;;;;5.38;2.20;;;;;;;30.84;28.40;101545.31;5007594;28;20104;-84
2022/08/13 09:19:06;;;;;;;5.75;2.17;;;;;;;30.98;27.86;101540.34;5006911;28;20068;-86
2022/08/13 09:21:32;;;;;;;6.28;2.10;;;;;;;31.15;27.67;101535.88;5005650;28;20454;-83
2022/08/13 09:23:58;;;;;;;5.25;2.35;;;;;;;31.31;27.02;101536.13;5006854;28;20493;-84
2022/08/13 09:26:23;;;;;;;3.50;2.05;;;;;;;31.56;27.83;101536.31;5007615;28;20117;-83
2022/08/13 09:28:56;;;;;;;3.08;2.08;;;;;;;31.35;26.36;101545.50;5006614;28;20038;-84
2022/08/13 09:31:23;;;;;;;6.20;2.42;;;;;;;31.74;27.12;101540.69;5006322;28;20085;-83
2022/08/13 09:33:52;;;;;;;3.78;2.40;;;;;;;31.74;27.72;101542.66;4987019;28;20128;-85
2022/08/13 09:36:19;;;;;;;3.47;1.90;;;;;;;32.04;26.87;101537.81;5006407;28;20045;-83
2022/08/13 09:38:44;;;;;;;3.92;2.50;;;;;;;32.01;26.86;101535.69;5006869;28;20324;-85
2022/08/13 09:41:20;;;;;;;5.00;2.05;;;;;;;31.98;27.14;101539.19;4987983;28;20042;-83
2022/08/13 09:43:47;;;;;;;3.10;2.13;;;;;;;31.93;28.11;101525.38;5006614;28;20498;-84
2022/08/13 09:46:15;;;;;;;2.42;2.10;;;;;;;32.38;27.94;101535.06;5007124;28;20033;-85
2022/08/13 09:48:41;;;;;;;5.03;2.10;;;;;;;32.26;27.74;101519.84;5006932;28;20535;-84
2022/08/13 09:51:13;;;;;;;6.50;2.22;;;;;;;32.91;27.52;101533.38;5005951;28;20033;-82
2022/08/13 09:53:39;;;;;;;4.72;2.20;;;;;;;33.20;27.14;101528.72;5006100;28;21464;-81
2022/08/13 09:56:05;;;;;;;3.05;2.00;;;;;;;33.25;26.15;101524.88;5006206;28;20168;-85
2022/08/13 09:58:30;;;;;;;6.28;2.10;;;;;;;33.41;24.96;101525.78;5006675;28;20381;-82
2022/08/13 10:00:56;;;;;;;2.30;1.80;;;;;;;33.41;24.98;101522.97;5006131;28;20045;-84
2022/08/13 10:03:22;;;;;;;5.18;1.88;;;;;;;33.73;24.95;101517.56;5005943;28;20033;-83
2022/08/13 10:05:48;;;;;;;3.15;1.95;;;;;;;32.86;24.11;101513.13;4989390;28;20176;-84
2022/08/13 10:08:16;;;;;;;2.80;1.85;;;;;;;32.87;24.81;101517.56;4979147;28;20521;-86
2022/08/13 10:10:42;;;;;;;3.22;1.90;;;;;;;32.58;25.28;101510.94;5006235;28;20156;-83
2022/08/13 10:13:08;;;;;;;2.75;1.80;;;;;;;32.58;25.34;101502.53;5005661;28;20244;-86
2022/08/13 10:15:34;;;;;;;5.38;1.85;;;;;;;33.12;25.64;101501.56;5006239;28;20041;-83
2022/08/13 10:18:04;;;;;;;2.88;1.90;;;;;;;32.90;25.38;101502.81;5006345;28;21360;-82
2022/08/13 10:20:29;;;;;;;6.60;2.05;;;;;;;32.64;25.61;101503.91;5006746;28;20037;-86
2022/08/13 10:22:56;;;;;;;4.70;2.03;;;;;;;32.46;25.81;101503.31;5006077;28;20100;-84
2022/08/13 10:25:24;;;;;;;4.28;2.00;;;;;;;32.92;25.80;101503.31;5005886;28;20401;-85
2022/08/13 10:27:50;;;;;;;4.72;2.00;;;;;;;32.72;23.68;101496.63;5005589;28;20085;-83
2022/08/13 10:30:21;;;;;;;5.78;1.88;;;;;;;32.96;24.82;101495.81;5006055;28;20061;-83
2022/08/13 10:32:47;;;;;;;3.17;1.65;;;;;;;33.14;24.16;101487.97;5004716;28;20733;-84
2022/08/13 10:35:15;;;;;;;3.53;1.77;;;;;;;33.14;23.71;101494.44;5005959;28;20107;-84
2022/08/13 10:37:49;;;;;;;3.58;1.58;;;;;;;33.39;25.06;101497.25;4987188;28;20378;-83
2022/08/13 10:40:14;;;;;;;1.90;1.80;;;;;;;33.12;23.95;101485.53;5005067;28;20037;-83
2022/08/13 10:42:44;;;;;;;3.35;1.80;;;;;;;33.05;23.83;101485.31;5005478;28;20387;-85
2022/08/13 10:45:10;;;;;;;2.63;1.80;;;;;;;33.20;25.19;101482.94;5005719;28;20037;-83
2022/08/13 10:47:44;;;;;;;1.70;1.55;;;;;;;33.45;24.63;101490.22;4985858;28;20412;-84
2022/08/13 10:50:10;;;;;;;1.90;1.52;;;;;;;33.82;23.66;101492.16;5005429;28;20619;-84
2022/08/13 10:52:36;;;;;;;5.93;1.70;;;;;;;33.90;22.35;101501.63;5006071;28;20104;-85
2022/08/13 10:55:01;;;;;;;2.05;1.90;;;;;;;33.93;21.66;101489.66;4984842;28;20351;-83
2022/08/13 10:57:26;;;;;;;1.60;1.27;;;;;;;33.79;22.54;101487.25;5005526;28;20055;-85
2022/08/13 10:59:52;;;;;;;3.22;1.45;;;;;;;33.99;22.37;101482.63;4984844;28;20040;-84
2022/08/13 11:02:17;;;;;;;2.92;1.58;;;;;;;34.06;22.21;101482.81;4985923;28;20128;-82
2022/08/13 11:04:45;;;;;;;2.88;1.65;;;;;;;34.10;22.00;101482.91;5004445;28;20091;-82
2022/08/13 11:07:11;;;;;;;4.82;1.80;;;;;;;34.05;22.38;101480.34;4985438;28;20112;-85
2022/08/13 11:09:37;;;;;;;1.58;1.48;;;;;;;34.40;22.56;101476.94;5004898;28;20092;-84
2022/08/13 11:12:08;;;;;;;2.58;1.67;;;;;;;34.10;21.81;101480.91;4986035;28;20041;-82
2022/08/13 11:14:33;;;;;;;2.90;1.50;;;;;;;34.07;21.72;101473.19;5004950;28;20135;-85
2022/08/13 11:16:59;;;;;;;1.45;1.25;;;;;;;34.00;20.27;101481.44;5004607;28;20144;-84
2022/08/13 11:19:28;;;;;;;5.00;1.30;;;;;;;34.12;20.65;101484.19;5005447;28;20049;-83
2022/08/13 11:21:53;;;;;;;2.83;1.35;;;;;;;34.13;21.10;101485.00;5004442;28;20048;-85
2022/08/13 11:24:19;;;;;;;2.10;1.67;;;;;;;33.74;21.21;101479.88;5005542;28;20042;-84
2022/08/13 11:26:47;;;;;;;3.05;1.50;;;;;;;34.10;21.76;101480.91;5004776;28;20400;-86
2022/08/13 11:29:13;;;;;;;1.60;1.50;;;;;;;33.74;21.16;101467.78;5004042;28;20041;-84
2022/08/13 11:31:39;;;;;;;2.67;1.50;;;;;;;34.48;22.36;101462.69;5004646;28;20488;-85
2022/08/13 11:34:04;;;;;;;4.22;1.90;;;;;;;34.16;21.55;101462.63;5004951;28;20132;-85
2022/08/13 11:36:30;;;;;;;1.80;1.33;;;;;;;34.32;22.45;101459.03;4987186;28;20041;-84
2022/08/13 11:38:55;;;;;;;3.65;1.70;;;;;;;34.27;21.53;101456.47;5005206;28;20168;-85
2022/08/13 11:41:21;;;;;;;2.72;1.70;;;;;;;34.09;22.47;101453.97;5004867;28;20470;-86
2022/08/13 11:43:48;;;;;;;1.85;1.40;;;;;;;34.14;22.30;101447.28;5003602;28;20482;-84
2022/08/13 11:46:13;;;;;;;2.80;1.73;;;;;;;34.03;22.21;101455.41;5004966;28;20038;-84
2022/08/13 11:48:39;;;;;;;3.08;1.77;;;;;;;34.14;22.83;101453.72;5005201;28;20049;-83